Okarito, New Zealand
Current Conditions -  °F | °C
As of 5:00 PM on Monday 22 Dec 2014 (Local Time) from NZCH Reporting Station
Clear Clear  
Wind Chill: 64°   Ceiling: Unl
Heat Index: 64°   Visibility: 6mi
Dew Point: 54°   Wind: 16mph
Humidity: 68%   Direction: 70°ENE
Pressure: 30.06"   Gusts: NA
Location:  43.22°S, 170.17°E
Report Text: NZCH 220500Z AUTO 07014KT 040V110 9999 NCD 18/12 Q1018 NOSIG
Loading
Personal Weather Stations






























Interactive Weather Map New forecast layout! Learn more

10-Day Weather Forecast

Advertisements
Track Severe Weather on mobile